Terminal Aerodrome Forecast
Issued by NWS

Home | Current Version | Previous Version | Text Only | Print | Product List | Glossary Off
Versions: 1 2 3 4 5 6 7 8 9 10 11 12 13 14 15 16 17 18 19 20 21 22 23

328
FTUS43 KLOT 301741
TAFDPA
TAF
KDPA 301741Z 3018/0118 05012G19KT P6SM BKN013 BKN020
      TEMPO 3018/3019 6SM -DZ OVC009
     FM302200 04012KT P6SM VCSH BKN015
      TEMPO 3023/0103 5SM -SHRA OVC010
     FM010300 05011KT 4SM -SHRADZ BR BKN008 OVC012
     FM010800 04008KT 3SM -DZ BR OVC006
     FM011400 04010KT 5SM -SHRA BR OVC008
     FM011700 02008KT 6SM -SHRA BR OVC012=

USA.gov is the U.S. government's official web portal to all federal, state and local government web resources and services.